sensor_id;sensor_type;location;lat;lon;timestamp;temperature;humidity
12481;DHT22;6305;48.398;11.762;2024-03-25T00:00:21;3.70;99.90
12481;DHT22;6305;48.398;11.762;2024-03-25T00:02:51;3.70;99.90
12481;DHT22;6305;48.398;11.762;2024-03-25T00:05:18;3.70;99.90
12481;DHT22;6305;48.398;11.762;2024-03-25T00:07:48;3.70;99.90
12481;DHT22;6305;48.398;11.762;2024-03-25T00:10:14;3.70;99.90
12481;DHT22;6305;48.398;11.762;2024-03-25T00:12:41;3.70;99.90
12481;DHT22;6305;48.398;11.762;2024-03-25T00:15:08;3.70;99.90
12481;DHT22;6305;48.398;11.762;2024-03-25T00:17:35;3.60;99.90
12481;DHT22;6305;48.398;11.762;2024-03-25T00:20:01;3.60;99.90
12481;DHT22;6305;48.398;11.762;2024-03-25T00:22:33;3.60;99.90
12481;DHT22;6305;48.398;11.762;2024-03-25T00:24:59;3.60;99.90
12481;DHT22;6305;48.398;11.762;2024-03-25T00:27:26;3.70;99.90
12481;DHT22;6305;48.398;11.762;2024-03-25T00:29:51;3.60;99.90
12481;DHT22;6305;48.398;11.762;2024-03-25T00:32:18;3.60;99.90
12481;DHT22;6305;48.398;11.762;2024-03-25T00:34:44;3.60;99.90
12481;DHT22;6305;48.398;11.762;2024-03-25T00:37:11;3.70;99.90
12481;DHT22;6305;48.398;11.762;2024-03-25T00:39:39;3.60;99.90
12481;DHT22;6305;48.398;11.762;2024-03-25T00:42:06;3.60;99.90
12481;DHT22;6305;48.398;11.762;2024-03-25T00:44:32;3.60;99.90
12481;DHT22;6305;48.398;11.762;2024-03-25T00:46:59;3.50;99.90
12481;DHT22;6305;48.398;11.762;2024-03-25T00:49:26;3.60;99.90
12481;DHT22;6305;48.398;11.762;2024-03-25T00:51:53;3.60;99.90
12481;DHT22;6305;48.398;11.762;2024-03-25T00:54:19;3.60;99.90
12481;DHT22;6305;48.398;11.762;2024-03-25T00:56:47;3.60;99.90
12481;DHT22;6305;48.398;11.762;2024-03-25T00:59:13;3.60;99.90
12481;DHT22;6305;48.398;11.762;2024-03-25T01:01:40;3.50;99.90
12481;DHT22;6305;48.398;11.762;2024-03-25T01:04:06;3.50;99.90
12481;DHT22;6305;48.398;11.762;2024-03-25T01:06:33;3.50;99.90
12481;DHT22;6305;48.398;11.762;2024-03-25T01:08:59;3.50;99.90
12481;DHT22;6305;48.398;11.762;2024-03-25T01:11:26;3.50;99.90
12481;DHT22;6305;48.398;11.762;2024-03-25T01:13:53;3.50;99.90
12481;DHT22;6305;48.398;11.762;2024-03-25T01:16:20;3.50;99.90
12481;DHT22;6305;48.398;11.762;2024-03-25T01:18:46;3.50;99.90
12481;DHT22;6305;48.398;11.762;2024-03-25T01:21:13;3.50;99.90
12481;DHT22;6305;48.398;11.762;2024-03-25T01:23:40;3.50;99.90
12481;DHT22;6305;48.398;11.762;2024-03-25T01:26:07;3.50;99.90
12481;DHT22;6305;48.398;11.762;2024-03-25T01:28:33;3.50;99.90
12481;DHT22;6305;48.398;11.762;2024-03-25T01:31:01;3.50;99.90
12481;DHT22;6305;48.398;11.762;2024-03-25T01:33:27;3.50;99.90
12481;DHT22;6305;48.398;11.762;2024-03-25T01:35:54;3.50;99.90
12481;DHT22;6305;48.398;11.762;2024-03-25T01:38:21;3.60;99.90
12481;DHT22;6305;48.398;11.762;2024-03-25T01:40:48;3.60;99.90
12481;DHT22;6305;48.398;11.762;2024-03-25T01:43:14;3.50;99.90
12481;DHT22;6305;48.398;11.762;2024-03-25T01:45:42;3.60;99.90
12481;DHT22;6305;48.398;11.762;2024-03-25T01:48:10;3.60;99.90
12481;DHT22;6305;48.398;11.762;2024-03-25T01:50:42;3.50;99.90
12481;DHT22;6305;48.398;11.762;2024-03-25T01:53:09;3.50;99.90
12481;DHT22;6305;48.398;11.762;2024-03-25T01:55:37;3.50;99.90
12481;DHT22;6305;48.398;11.762;2024-03-25T01:58:07;3.50;99.90
12481;DHT22;6305;48.398;11.762;2024-03-25T02:00:35;3.60;99.90
12481;DHT22;6305;48.398;11.762;2024-03-25T02:03:01;3.50;99.90
12481;DHT22;6305;48.398;11.762;2024-03-25T02:05:30;3.60;99.90
12481;DHT22;6305;48.398;11.762;2024-03-25T02:07:56;3.60;99.90
12481;DHT22;6305;48.398;11.762;2024-03-25T02:10:24;3.60;99.90
12481;DHT22;6305;48.398;11.762;2024-03-25T02:12:51;3.60;99.90
12481;DHT22;6305;48.398;11.762;2024-03-25T02:15:19;3.60;99.90
12481;DHT22;6305;48.398;11.762;2024-03-25T02:17:45;3.50;99.90
12481;DHT22;6305;48.398;11.762;2024-03-25T02:20:12;3.40;99.90
12481;DHT22;6305;48.398;11.762;2024-03-25T02:22:42;3.40;99.90
12481;DHT22;6305;48.398;11.762;2024-03-25T02:25:10;3.30;99.90
12481;DHT22;6305;48.398;11.762;2024-03-25T02:27:38;3.20;99.90
12481;DHT22;6305;48.398;11.762;2024-03-25T02:30:05;3.20;99.90
12481;DHT22;6305;48.398;11.762;2024-03-25T02:32:33;3.00;99.90
12481;DHT22;6305;48.398;11.762;2024-03-25T02:35:01;2.90;99.90
12481;DHT22;6305;48.398;11.762;2024-03-25T02:37:28;2.90;99.90
12481;DHT22;6305;48.398;11.762;2024-03-25T02:39:57;2.90;99.90
12481;DHT22;6305;48.398;11.762;2024-03-25T02:42:23;3.00;99.90
12481;DHT22;6305;48.398;11.762;2024-03-25T02:44:53;3.00;99.90
12481;DHT22;6305;48.398;11.762;2024-03-25T02:47:19;2.90;99.90
12481;DHT22;6305;48.398;11.762;2024-03-25T02:49:46;2.90;99.90
12481;DHT22;6305;48.398;11.762;2024-03-25T02:52:12;2.80;99.90
12481;DHT22;6305;48.398;11.762;2024-03-25T02:54:39;2.80;99.90
12481;DHT22;6305;48.398;11.762;2024-03-25T02:57:05;2.80;99.90
12481;DHT22;6305;48.398;11.762;2024-03-25T02:59:32;2.70;99.90
12481;DHT22;6305;48.398;11.762;2024-03-25T03:01:59;2.70;99.90
12481;DHT22;6305;48.398;11.762;2024-03-25T03:04:26;2.70;99.90
12481;DHT22;6305;48.398;11.762;2024-03-25T03:06:52;2.60;99.90
12481;DHT22;6305;48.398;11.762;2024-03-25T03:09:19;2.60;99.90
12481;DHT22;6305;48.398;11.762;2024-03-25T03:11:45;2.50;99.90
12481;DHT22;6305;48.398;11.762;2024-03-25T03:14:12;2.40;99.90
12481;DHT22;6305;48.398;11.762;2024-03-25T03:16:38;2.30;99.90
12481;DHT22;6305;48.398;11.762;2024-03-25T03:19:06;2.20;99.90
12481;DHT22;6305;48.398;11.762;2024-03-25T03:21:32;2.20;99.90
12481;DHT22;6305;48.398;11.762;2024-03-25T03:23:59;2.20;99.90
12481;DHT22;6305;48.398;11.762;2024-03-25T03:26:25;2.10;99.90
12481;DHT22;6305;48.398;11.762;2024-03-25T03:28:53;2.10;99.90
12481;DHT22;6305;48.398;11.762;2024-03-25T03:31:19;2.00;99.90
12481;DHT22;6305;48.398;11.762;2024-03-25T03:33:47;2.00;99.90
12481;DHT22;6305;48.398;11.762;2024-03-25T03:36:15;2.00;99.90
12481;DHT22;6305;48.398;11.762;2024-03-25T03:38:42;2.00;99.90
12481;DHT22;6305;48.398;11.762;2024-03-25T03:41:08;2.00;99.90
12481;DHT22;6305;48.398;11.762;2024-03-25T03:43:35;2.10;99.90
12481;DHT22;6305;48.398;11.762;2024-03-25T03:46:01;2.10;99.90
12481;DHT22;6305;48.398;11.762;2024-03-25T03:48:28;2.00;99.90
12481;DHT22;6305;48.398;11.762;2024-03-25T03:50:54;2.00;99.90
12481;DHT22;6305;48.398;11.762;2024-03-25T03:53:22;1.90;99.90
12481;DHT22;6305;48.398;11.762;2024-03-25T03:55:53;1.90;99.90
12481;DHT22;6305;48.398;11.762;2024-03-25T03:58:21;1.90;99.90
12481;DHT22;6305;48.398;11.762;2024-03-25T04:00:46;2.00;99.90
12481;DHT22;6305;48.398;11.762;2024-03-25T04:03:14;2.10;99.90
12481;DHT22;6305;48.398;11.762;2024-03-25T04:05:40;2.20;99.90
12481;DHT22;6305;48.398;11.762;2024-03-25T04:08:07;2.40;99.90
12481;DHT22;6305;48.398;11.762;2024-03-25T04:10:35;2.40;99.90
12481;DHT22;6305;48.398;11.762;2024-03-25T04:13:03;2.50;99.90
12481;DHT22;6305;48.398;11.762;2024-03-25T04:15:29;2.60;99.90
12481;DHT22;6305;48.398;11.762;2024-03-25T04:17:59;2.60;99.90
12481;DHT22;6305;48.398;11.762;2024-03-25T04:20:26;2.60;99.90
12481;DHT22;6305;48.398;11.762;2024-03-25T04:22:53;2.60;99.90
12481;DHT22;6305;48.398;11.762;2024-03-25T04:25:19;2.60;99.90
12481;DHT22;6305;48.398;11.762;2024-03-25T04:27:47;2.50;99.90
12481;DHT22;6305;48.398;11.762;2024-03-25T04:30:13;2.40;99.90
12481;DHT22;6305;48.398;11.762;2024-03-25T04:32:41;2.30;99.90
12481;DHT22;6305;48.398;11.762;2024-03-25T04:35:08;2.20;99.90
12481;DHT22;6305;48.398;11.762;2024-03-25T04:37:35;2.10;99.90
12481;DHT22;6305;48.398;11.762;2024-03-25T04:40:01;2.00;99.90
12481;DHT22;6305;48.398;11.762;2024-03-25T04:42:28;1.90;99.90
12481;DHT22;6305;48.398;11.762;2024-03-25T04:44:55;1.90;99.90
12481;DHT22;6305;48.398;11.762;2024-03-25T04:47:21;1.90;99.90
12481;DHT22;6305;48.398;11.762;2024-03-25T04:49:48;1.80;99.90
12481;DHT22;6305;48.398;11.762;2024-03-25T04:52:15;1.80;99.90
12481;DHT22;6305;48.398;11.762;2024-03-25T04:54:41;1.80;99.90
12481;DHT22;6305;48.398;11.762;2024-03-25T04:57:07;1.80;99.90
12481;DHT22;6305;48.398;11.762;2024-03-25T04:59:33;1.80;99.90
12481;DHT22;6305;48.398;11.762;2024-03-25T05:02:00;1.80;99.90
12481;DHT22;6305;48.398;11.762;2024-03-25T05:04:26;1.70;99.90
12481;DHT22;6305;48.398;11.762;2024-03-25T05:06:52;1.60;99.90
12481;DHT22;6305;48.398;11.762;2024-03-25T05:09:19;1.60;99.90
12481;DHT22;6305;48.398;11.762;2024-03-25T05:11:45;1.60;99.90
12481;DHT22;6305;48.398;11.762;2024-03-25T05:14:11;1.60;99.90
12481;DHT22;6305;48.398;11.762;2024-03-25T05:16:37;1.50;99.90
12481;DHT22;6305;48.398;11.762;2024-03-25T05:19:04;1.50;99.90
12481;DHT22;6305;48.398;11.762;2024-03-25T05:21:31;1.50;99.90
12481;DHT22;6305;48.398;11.762;2024-03-25T05:23:57;1.50;99.90
12481;DHT22;6305;48.398;11.762;2024-03-25T05:26:23;1.50;99.90
12481;DHT22;6305;48.398;11.762;2024-03-25T05:28:52;1.50;99.90
12481;DHT22;6305;48.398;11.762;2024-03-25T05:31:18;1.50;99.90
12481;DHT22;6305;48.398;11.762;2024-03-25T05:33:44;1.60;99.90
12481;DHT22;6305;48.398;11.762;2024-03-25T05:36:14;1.60;99.90
12481;DHT22;6305;48.398;11.762;2024-03-25T05:38:40;1.60;99.90
12481;DHT22;6305;48.398;11.762;2024-03-25T05:41:06;1.70;99.90
12481;DHT22;6305;48.398;11.762;2024-03-25T05:43:33;1.80;99.90
12481;DHT22;6305;48.398;11.762;2024-03-25T05:45:58;1.80;99.90
12481;DHT22;6305;48.398;11.762;2024-03-25T05:48:25;1.90;99.90
12481;DHT22;6305;48.398;11.762;2024-03-25T05:50:59;1.90;99.90
12481;DHT22;6305;48.398;11.762;2024-03-25T05:53:27;2.00;99.90
12481;DHT22;6305;48.398;11.762;2024-03-25T05:55:53;2.20;99.90
12481;DHT22;6305;48.398;11.762;2024-03-25T05:58:19;2.20;99.90
12481;DHT22;6305;48.398;11.762;2024-03-25T06:00:47;2.30;99.90
12481;DHT22;6305;48.398;11.762;2024-03-25T06:03:13;2.30;99.90
12481;DHT22;6305;48.398;11.762;2024-03-25T06:05:39;2.50;99.90
12481;DHT22;6305;48.398;11.762;2024-03-25T06:08:06;2.60;99.90
12481;DHT22;6305;48.398;11.762;2024-03-25T06:10:36;2.80;99.90
12481;DHT22;6305;48.398;11.762;2024-03-25T06:13:03;3.10;99.90
12481;DHT22;6305;48.398;11.762;2024-03-25T06:15:29;3.50;99.90
12481;DHT22;6305;48.398;11.762;2024-03-25T06:17:55;3.70;99.90
12481;DHT22;6305;48.398;11.762;2024-03-25T06:20:21;3.90;99.90
12481;DHT22;6305;48.398;11.762;2024-03-25T06:22:47;4.00;99.90
12481;DHT22;6305;48.398;11.762;2024-03-25T06:25:13;4.30;99.90
12481;DHT22;6305;48.398;11.762;2024-03-25T06:27:41;4.50;99.90
12481;DHT22;6305;48.398;11.762;2024-03-25T06:30:08;4.70;99.90
12481;DHT22;6305;48.398;11.762;2024-03-25T06:32:53;5.40;99.90
12481;DHT22;6305;48.398;11.762;2024-03-25T06:35:37;5.80;99.90
12481;DHT22;6305;48.398;11.762;2024-03-25T06:38:03;6.00;99.90
12481;DHT22;6305;48.398;11.762;2024-03-25T06:40:29;6.50;99.90
12481;DHT22;6305;48.398;11.762;2024-03-25T06:42:57;7.10;99.90
12481;DHT22;6305;48.398;11.762;2024-03-25T06:45:24;7.20;99.90
12481;DHT22;6305;48.398;11.762;2024-03-25T06:47:50;6.90;99.90
12481;DHT22;6305;48.398;11.762;2024-03-25T06:50:16;7.00;99.90
12481;DHT22;6305;48.398;11.762;2024-03-25T06:52:42;7.20;99.90
12481;DHT22;6305;48.398;11.762;2024-03-25T06:55:08;7.40;99.90
12481;DHT22;6305;48.398;11.762;2024-03-25T06:57:34;7.70;99.90
12481;DHT22;6305;48.398;11.762;2024-03-25T07:00:02;7.80;99.90
12481;DHT22;6305;48.398;11.762;2024-03-25T07:02:28;7.80;99.90
12481;DHT22;6305;48.398;11.762;2024-03-25T07:04:54;7.90;99.90
12481;DHT22;6305;48.398;11.762;2024-03-25T07:07:20;8.30;99.90
12481;DHT22;6305;48.398;11.762;2024-03-25T07:09:46;8.10;99.90
12481;DHT22;6305;48.398;11.762;2024-03-25T07:12:12;7.90;99.90
12481;DHT22;6305;48.398;11.762;2024-03-25T07:14:39;8.20;99.90
12481;DHT22;6305;48.398;11.762;2024-03-25T07:17:06;8.90;99.90
12481;DHT22;6305;48.398;11.762;2024-03-25T07:19:32;8.80;99.90
12481;DHT22;6305;48.398;11.762;2024-03-25T07:21:58;8.40;99.90
12481;DHT22;6305;48.398;11.762;2024-03-25T07:24:24;8.20;99.90
12481;DHT22;6305;48.398;11.762;2024-03-25T07:26:50;8.20;99.90
12481;DHT22;6305;48.398;11.762;2024-03-25T07:29:16;10.00;99.90
12481;DHT22;6305;48.398;11.762;2024-03-25T07:31:42;11.10;99.90
12481;DHT22;6305;48.398;11.762;2024-03-25T07:34:10;10.70;99.90
12481;DHT22;6305;48.398;11.762;2024-03-25T07:36:36;10.70;99.90
12481;DHT22;6305;48.398;11.762;2024-03-25T07:39:02;11.20;99.90
12481;DHT22;6305;48.398;11.762;2024-03-25T07:41:28;12.90;99.90
12481;DHT22;6305;48.398;11.762;2024-03-25T07:43:54;14.90;93.60
12481;DHT22;6305;48.398;11.762;2024-03-25T07:46:20;15.80;83.00
12481;DHT22;6305;48.398;11.762;2024-03-25T07:48:46;16.50;77.60
12481;DHT22;6305;48.398;11.762;2024-03-25T07:51:14;17.60;70.10
12481;DHT22;6305;48.398;11.762;2024-03-25T07:53:40;17.50;64.90
12481;DHT22;6305;48.398;11.762;2024-03-25T07:56:06;17.60;62.10
12481;DHT22;6305;48.398;11.762;2024-03-25T07:58:34;17.90;62.90
12481;DHT22;6305;48.398;11.762;2024-03-25T08:01:00;18.10;59.00
12481;DHT22;6305;48.398;11.762;2024-03-25T08:03:26;18.10;58.10
12481;DHT22;6305;48.398;11.762;2024-03-25T08:05:52;18.20;57.50
12481;DHT22;6305;48.398;11.762;2024-03-25T08:08:19;17.60;58.20
12481;DHT22;6305;48.398;11.762;2024-03-25T08:10:45;15.90;59.80
12481;DHT22;6305;48.398;11.762;2024-03-25T08:13:11;16.10;61.90
12481;DHT22;6305;48.398;11.762;2024-03-25T08:15:37;16.40;62.20
12481;DHT22;6305;48.398;11.762;2024-03-25T08:18:04;16.50;61.60
12481;DHT22;6305;48.398;11.762;2024-03-25T08:20:32;17.00;61.20
12481;DHT22;6305;48.398;11.762;2024-03-25T08:22:58;17.30;60.20
12481;DHT22;6305;48.398;11.762;2024-03-25T08:25:26;18.10;58.40
12481;DHT22;6305;48.398;11.762;2024-03-25T08:27:52;17.40;57.60
12481;DHT22;6305;48.398;11.762;2024-03-25T08:30:19;18.00;57.70
12481;DHT22;6305;48.398;11.762;2024-03-25T08:32:45;17.10;56.70
12481;DHT22;6305;48.398;11.762;2024-03-25T08:35:12;15.90;58.20
12481;DHT22;6305;48.398;11.762;2024-03-25T08:37:38;15.10;59.10
12481;DHT22;6305;48.398;11.762;2024-03-25T08:40:06;16.00;62.80
12481;DHT22;6305;48.398;11.762;2024-03-25T08:42:33;17.00;60.10
12481;DHT22;6305;48.398;11.762;2024-03-25T08:44:59;17.40;58.20
12481;DHT22;6305;48.398;11.762;2024-03-25T08:47:25;18.30;57.50
12481;DHT22;6305;48.398;11.762;2024-03-25T08:49:51;19.00;53.70
12481;DHT22;6305;48.398;11.762;2024-03-25T08:52:17;18.80;52.80
12481;DHT22;6305;48.398;11.762;2024-03-25T08:54:43;19.90;52.70
12481;DHT22;6305;48.398;11.762;2024-03-25T08:57:09;20.50;51.20
12481;DHT22;6305;48.398;11.762;2024-03-25T08:59:37;20.20;50.70
12481;DHT22;6305;48.398;11.762;2024-03-25T09:02:03;20.20;50.20
12481;DHT22;6305;48.398;11.762;2024-03-25T09:04:29;18.60;50.30
12481;DHT22;6305;48.398;11.762;2024-03-25T09:06:56;18.50;51.10
12481;DHT22;6305;48.398;11.762;2024-03-25T09:09:22;16.90;52.30
12481;DHT22;6305;48.398;11.762;2024-03-25T09:12:07;15.00;55.50
12481;DHT22;6305;48.398;11.762;2024-03-25T09:14:33;14.40;58.60
12481;DHT22;6305;48.398;11.762;2024-03-25T09:17:01;16.50;59.10
12481;DHT22;6305;48.398;11.762;2024-03-25T09:19:27;15.60;56.10
12481;DHT22;6305;48.398;11.762;2024-03-25T09:21:53;14.70;58.20
12481;DHT22;6305;48.398;11.762;2024-03-25T09:24:19;15.50;60.50
12481;DHT22;6305;48.398;11.762;2024-03-25T09:26:45;17.60;57.20
12481;DHT22;6305;48.398;11.762;2024-03-25T09:29:11;18.50;54.10
12481;DHT22;6305;48.398;11.762;2024-03-25T09:31:37;17.50;52.40
12481;DHT22;6305;48.398;11.762;2024-03-25T09:34:05;15.80;54.10
12481;DHT22;6305;48.398;11.762;2024-03-25T09:36:31;14.20;55.60
12481;DHT22;6305;48.398;11.762;2024-03-25T09:38:57;13.80;59.00
12481;DHT22;6305;48.398;11.762;2024-03-25T09:41:23;15.20;61.10
12481;DHT22;6305;48.398;11.762;2024-03-25T09:43:53;18.10;56.60
12481;DHT22;6305;48.398;11.762;2024-03-25T09:46:20;17.30;51.70
12481;DHT22;6305;48.398;11.762;2024-03-25T09:48:47;14.80;53.90
12481;DHT22;6305;48.398;11.762;2024-03-25T09:51:14;13.60;56.20
12481;DHT22;6305;48.398;11.762;2024-03-25T09:53:40;13.60;59.80
12481;DHT22;6305;48.398;11.762;2024-03-25T09:56:07;15.60;59.60
12481;DHT22;6305;48.398;11.762;2024-03-25T09:58:33;15.30;56.10
12481;DHT22;6305;48.398;11.762;2024-03-25T10:01:00;14.40;55.60
12481;DHT22;6305;48.398;11.762;2024-03-25T10:03:26;13.60;56.80
12481;DHT22;6305;48.398;11.762;2024-03-25T10:05:52;13.20;58.30
12481;DHT22;6305;48.398;11.762;2024-03-25T10:08:21;13.80;61.30
12481;DHT22;6305;48.398;11.762;2024-03-25T10:10:47;16.50;57.90
12481;DHT22;6305;48.398;11.762;2024-03-25T10:13:13;18.90;54.50
12481;DHT22;6305;48.398;11.762;2024-03-25T10:15:41;18.40;49.50
12481;DHT22;6305;48.398;11.762;2024-03-25T10:18:07;18.70;49.90
12481;DHT22;6305;48.398;11.762;2024-03-25T10:20:33;20.70;49.80
12481;DHT22;6305;48.398;11.762;2024-03-25T10:22:59;22.00;43.70
12481;DHT22;6305;48.398;11.762;2024-03-25T10:25:27;21.90;42.60
12481;DHT22;6305;48.398;11.762;2024-03-25T10:27:54;22.30;41.60
12481;DHT22;6305;48.398;11.762;2024-03-25T10:30:21;22.40;40.20
12481;DHT22;6305;48.398;11.762;2024-03-25T10:32:58;22.60;39.60
12481;DHT22;6305;48.398;11.762;2024-03-25T10:35:26;22.00;38.90
12481;DHT22;6305;48.398;11.762;2024-03-25T10:37:55;20.80;40.30
12481;DHT22;6305;48.398;11.762;2024-03-25T10:40:23;19.50;40.10
12481;DHT22;6305;48.398;11.762;2024-03-25T10:42:55;20.20;41.90
12481;DHT22;6305;48.398;11.762;2024-03-25T10:45:23;21.40;40.60
12481;DHT22;6305;48.398;11.762;2024-03-25T10:47:49;22.50;38.50
12481;DHT22;6305;48.398;11.762;2024-03-25T10:50:16;22.40;35.80
12481;DHT22;6305;48.398;11.762;2024-03-25T10:52:44;19.90;37.60
12481;DHT22;6305;48.398;11.762;2024-03-25T10:55:10;17.90;39.30
12481;DHT22;6305;48.398;11.762;2024-03-25T10:57:37;15.80;42.10
12481;DHT22;6305;48.398;11.762;2024-03-25T11:00:06;14.50;44.80
12481;DHT22;6305;48.398;11.762;2024-03-25T11:02:33;13.80;47.10
12481;DHT22;6305;48.398;11.762;2024-03-25T11:05:00;14.00;48.80
12481;DHT22;6305;48.398;11.762;2024-03-25T11:07:31;17.10;48.80
12481;DHT22;6305;48.398;11.762;2024-03-25T11:10:04;19.90;42.30
12481;DHT22;6305;48.398;11.762;2024-03-25T11:12:35;23.00;39.50
12481;DHT22;6305;48.398;11.762;2024-03-25T11:15:02;24.00;35.70
12481;DHT22;6305;48.398;11.762;2024-03-25T11:17:31;22.20;32.70
12481;DHT22;6305;48.398;11.762;2024-03-25T11:20:09;20.70;34.00
12481;DHT22;6305;48.398;11.762;2024-03-25T11:22:36;19.40;37.30
12481;DHT22;6305;48.398;11.762;2024-03-25T11:25:13;20.10;41.30
12481;DHT22;6305;48.398;11.762;2024-03-25T11:27:39;22.20;40.00
12481;DHT22;6305;48.398;11.762;2024-03-25T11:30:08;22.10;37.70
12481;DHT22;6305;48.398;11.762;2024-03-25T11:32:45;21.30;38.10
12481;DHT22;6305;48.398;11.762;2024-03-25T11:35:11;20.30;39.00
12481;DHT22;6305;48.398;11.762;2024-03-25T11:37:41;19.30;39.50
12481;DHT22;6305;48.398;11.762;2024-03-25T11:40:08;19.60;41.40
12481;DHT22;6305;48.398;11.762;2024-03-25T11:42:34;21.70;40.90
12481;DHT22;6305;48.398;11.762;2024-03-25T11:45:01;24.50;38.50
12481;DHT22;6305;48.398;11.762;2024-03-25T11:47:30;26.80;36.10
12481;DHT22;6305;48.398;11.762;2024-03-25T11:49:57;28.00;31.30
12481;DHT22;6305;48.398;11.762;2024-03-25T11:52:23;27.20;30.10
12481;DHT22;6305;48.398;11.762;2024-03-25T11:54:56;25.70;29.50
12481;DHT22;6305;48.398;11.762;2024-03-25T11:57:22;24.10;31.40
12481;DHT22;6305;48.398;11.762;2024-03-25T11:59:48;22.20;31.70
12481;DHT22;6305;48.398;11.762;2024-03-25T12:02:15;20.90;33.70
12481;DHT22;6305;48.398;11.762;2024-03-25T12:04:45;21.90;33.70
12481;DHT22;6305;48.398;11.762;2024-03-25T12:07:13;23.70;33.90
12481;DHT22;6305;48.398;11.762;2024-03-25T12:09:40;25.30;30.70
12481;DHT22;6305;48.398;11.762;2024-03-25T12:12:25;25.30;29.90
12481;DHT22;6305;48.398;11.762;2024-03-25T12:14:52;25.50;29.30
12481;DHT22;6305;48.398;11.762;2024-03-25T12:17:21;26.60;29.80
12481;DHT22;6305;48.398;11.762;2024-03-25T12:19:58;28.30;27.60
12481;DHT22;6305;48.398;11.762;2024-03-25T12:22:27;28.50;26.00
12481;DHT22;6305;48.398;11.762;2024-03-25T12:24:57;27.60;26.10
12481;DHT22;6305;48.398;11.762;2024-03-25T12:27:24;27.50;27.10
12481;DHT22;6305;48.398;11.762;2024-03-25T12:29:57;27.30;25.70
12481;DHT22;6305;48.398;11.762;2024-03-25T12:32:31;26.40;26.70
12481;DHT22;6305;48.398;11.762;2024-03-25T12:34:58;26.20;26.50
12481;DHT22;6305;48.398;11.762;2024-03-25T12:37:27;26.10;27.10
12481;DHT22;6305;48.398;11.762;2024-03-25T12:39:53;25.90;27.30
12481;DHT22;6305;48.398;11.762;2024-03-25T12:42:19;26.80;26.80
12481;DHT22;6305;48.398;11.762;2024-03-25T12:44:45;27.70;25.70
12481;DHT22;6305;48.398;11.762;2024-03-25T12:47:11;28.90;26.00
12481;DHT22;6305;48.398;11.762;2024-03-25T12:49:37;28.70;25.10
12481;DHT22;6305;48.398;11.762;2024-03-25T12:52:05;26.50;24.80
12481;DHT22;6305;48.398;11.762;2024-03-25T12:54:33;25.50;26.50
12481;DHT22;6305;48.398;11.762;2024-03-25T12:56:59;25.60;26.20
12481;DHT22;6305;48.398;11.762;2024-03-25T12:59:25;26.20;26.80
12481;DHT22;6305;48.398;11.762;2024-03-25T13:01:51;25.50;25.30
12481;DHT22;6305;48.398;11.762;2024-03-25T13:04:17;24.50;26.40
12481;DHT22;6305;48.398;11.762;2024-03-25T13:06:43;24.30;26.50
12481;DHT22;6305;48.398;11.762;2024-03-25T13:09:10;23.70;27.20
12481;DHT22;6305;48.398;11.762;2024-03-25T13:11:38;23.60;26.60
12481;DHT22;6305;48.398;11.762;2024-03-25T13:14:04;23.50;27.00
12481;DHT22;6305;48.398;11.762;2024-03-25T13:16:31;23.20;27.80
12481;DHT22;6305;48.398;11.762;2024-03-25T13:18:57;23.70;27.20
12481;DHT22;6305;48.398;11.762;2024-03-25T13:21:23;24.50;27.70
12481;DHT22;6305;48.398;11.762;2024-03-25T13:23:50;25.30;26.90
12481;DHT22;6305;48.398;11.762;2024-03-25T13:26:16;25.60;26.30
12481;DHT22;6305;48.398;11.762;2024-03-25T13:28:44;25.90;25.80
12481;DHT22;6305;48.398;11.762;2024-03-25T13:31:10;25.00;25.00
12481;DHT22;6305;48.398;11.762;2024-03-25T13:33:36;25.40;25.90
12481;DHT22;6305;48.398;11.762;2024-03-25T13:36:02;25.40;26.00
12481;DHT22;6305;48.398;11.762;2024-03-25T13:38:28;25.00;26.40
12481;DHT22;6305;48.398;11.762;2024-03-25T13:40:54;25.30;26.40
12481;DHT22;6305;48.398;11.762;2024-03-25T13:43:20;25.80;26.10
12481;DHT22;6305;48.398;11.762;2024-03-25T13:45:48;26.60;25.40
12481;DHT22;6305;48.398;11.762;2024-03-25T13:48:15;27.00;25.10
12481;DHT22;6305;48.398;11.762;2024-03-25T13:50:42;27.30;24.20
12481;DHT22;6305;48.398;11.762;2024-03-25T13:53:13;26.90;23.90
12481;DHT22;6305;48.398;11.762;2024-03-25T13:55:40;26.20;24.70
12481;DHT22;6305;48.398;11.762;2024-03-25T13:58:06;24.70;25.30
12481;DHT22;6305;48.398;11.762;2024-03-25T14:00:32;24.10;26.60
12481;DHT22;6305;48.398;11.762;2024-03-25T14:02:59;24.00;26.40
12481;DHT22;6305;48.398;11.762;2024-03-25T14:05:25;24.20;25.90
12481;DHT22;6305;48.398;11.762;2024-03-25T14:07:51;24.60;25.90
12481;DHT22;6305;48.398;11.762;2024-03-25T14:10:18;24.40;27.00
12481;DHT22;6305;48.398;11.762;2024-03-25T14:12:44;24.90;26.50
12481;DHT22;6305;48.398;11.762;2024-03-25T14:15:10;25.20;26.50
12481;DHT22;6305;48.398;11.762;2024-03-25T14:17:37;25.40;25.60
12481;DHT22;6305;48.398;11.762;2024-03-25T14:20:05;24.80;24.80
12481;DHT22;6305;48.398;11.762;2024-03-25T14:22:32;24.30;25.80
12481;DHT22;6305;48.398;11.762;2024-03-25T14:24:58;23.80;25.50
12481;DHT22;6305;48.398;11.762;2024-03-25T14:27:24;24.20;26.40
12481;DHT22;6305;48.398;11.762;2024-03-25T14:29:51;25.00;26.40
12481;DHT22;6305;48.398;11.762;2024-03-25T14:32:19;25.60;25.70
12481;DHT22;6305;48.398;11.762;2024-03-25T14:34:45;25.80;24.60
12481;DHT22;6305;48.398;11.762;2024-03-25T14:37:12;25.00;24.20
12481;DHT22;6305;48.398;11.762;2024-03-25T14:39:39;24.40;25.40
12481;DHT22;6305;48.398;11.762;2024-03-25T14:42:05;24.70;26.30
12481;DHT22;6305;48.398;11.762;2024-03-25T14:44:31;25.00;25.90
12481;DHT22;6305;48.398;11.762;2024-03-25T14:46:57;25.70;25.70
12481;DHT22;6305;48.398;11.762;2024-03-25T14:49:24;26.30;25.70
12481;DHT22;6305;48.398;11.762;2024-03-25T14:51:50;27.20;24.10
12481;DHT22;6305;48.398;11.762;2024-03-25T14:54:18;27.20;24.60
12481;DHT22;6305;48.398;11.762;2024-03-25T14:56:45;26.90;24.50
12481;DHT22;6305;48.398;11.762;2024-03-25T14:59:11;26.30;25.00
12481;DHT22;6305;48.398;11.762;2024-03-25T15:01:37;26.20;24.90
12481;DHT22;6305;48.398;11.762;2024-03-25T15:04:04;25.80;24.90
12481;DHT22;6305;48.398;11.762;2024-03-25T15:06:30;25.50;25.70
12481;DHT22;6305;48.398;11.762;2024-03-25T15:08:56;24.90;26.20
12481;DHT22;6305;48.398;11.762;2024-03-25T15:11:24;25.00;26.30
12481;DHT22;6305;48.398;11.762;2024-03-25T15:13:51;25.20;26.90
12481;DHT22;6305;48.398;11.762;2024-03-25T15:16:17;25.40;26.40
12481;DHT22;6305;48.398;11.762;2024-03-25T15:18:43;25.30;26.20
12481;DHT22;6305;48.398;11.762;2024-03-25T15:21:10;25.00;26.20
12481;DHT22;6305;48.398;11.762;2024-03-25T15:23:36;24.60;26.90
12481;DHT22;6305;48.398;11.762;2024-03-25T15:26:03;24.30;26.60
12481;DHT22;6305;48.398;11.762;2024-03-25T15:28:30;23.70;27.90
12481;DHT22;6305;48.398;11.762;2024-03-25T15:30:56;23.20;28.10
12481;DHT22;6305;48.398;11.762;2024-03-25T15:33:22;22.70;29.00
12481;DHT22;6305;48.398;11.762;2024-03-25T15:35:49;21.80;29.40